sensor_id;sensor_type;location;lat;lon;timestamp;temperature;humidity
6724;DHT22;3399;52.530;13.304;2024-01-15T00:02:16;2.50;99.90
6724;DHT22;3399;52.530;13.304;2024-01-15T00:04:42;2.60;99.90
6724;DHT22;3399;52.530;13.304;2024-01-15T00:07:08;2.70;99.90
6724;DHT22;3399;52.530;13.304;2024-01-15T00:09:34;2.80;99.90
6724;DHT22;3399;52.530;13.304;2024-01-15T00:12:00;2.80;99.90
6724;DHT22;3399;52.530;13.304;2024-01-15T00:14:26;2.90;99.90
6724;DHT22;3399;52.530;13.304;2024-01-15T00:16:51;2.80;99.90
6724;DHT22;3399;52.530;13.304;2024-01-15T00:19:17;3.00;99.90
6724;DHT22;3399;52.530;13.304;2024-01-15T00:21:44;3.00;99.90
6724;DHT22;3399;52.530;13.304;2024-01-15T00:24:09;2.90;99.90
6724;DHT22;3399;52.530;13.304;2024-01-15T00:26:35;2.80;99.90
6724;DHT22;3399;52.530;13.304;2024-01-15T00:29:00;2.90;99.90
6724;DHT22;3399;52.530;13.304;2024-01-15T00:31:26;3.20;99.90
6724;DHT22;3399;52.530;13.304;2024-01-15T00:33:51;3.00;99.90
6724;DHT22;3399;52.530;13.304;2024-01-15T00:36:17;2.90;99.90
6724;DHT22;3399;52.530;13.304;2024-01-15T00:38:44;2.80;99.90
6724;DHT22;3399;52.530;13.304;2024-01-15T00:41:09;2.80;99.90
6724;DHT22;3399;52.530;13.304;2024-01-15T00:43:35;2.80;99.90
6724;DHT22;3399;52.530;13.304;2024-01-15T00:46:04;2.90;99.90
6724;DHT22;3399;52.530;13.304;2024-01-15T00:48:30;2.90;99.90
6724;DHT22;3399;52.530;13.304;2024-01-15T00:50:55;2.80;99.90
6724;DHT22;3399;52.530;13.304;2024-01-15T00:53:21;2.90;99.90
6724;DHT22;3399;52.530;13.304;2024-01-15T00:55:48;2.80;99.90
6724;DHT22;3399;52.530;13.304;2024-01-15T00:58:14;2.90;99.90
6724;DHT22;3399;52.530;13.304;2024-01-15T01:00:39;3.00;99.90
6724;DHT22;3399;52.530;13.304;2024-01-15T01:03:04;3.10;99.90
6724;DHT22;3399;52.530;13.304;2024-01-15T01:05:30;3.00;99.90
6724;DHT22;3399;52.530;13.304;2024-01-15T01:07:55;3.00;99.90
6724;DHT22;3399;52.530;13.304;2024-01-15T01:10:21;3.00;99.90
6724;DHT22;3399;52.530;13.304;2024-01-15T01:12:46;2.50;99.90
6724;DHT22;3399;52.530;13.304;2024-01-15T01:15:12;2.00;99.90
6724;DHT22;3399;52.530;13.304;2024-01-15T01:17:37;2.00;99.90
6724;DHT22;3399;52.530;13.304;2024-01-15T01:20:03;1.80;99.90
6724;DHT22;3399;52.530;13.304;2024-01-15T01:22:31;1.60;99.90
6724;DHT22;3399;52.530;13.304;2024-01-15T01:24:57;1.70;99.90
6724;DHT22;3399;52.530;13.304;2024-01-15T01:27:22;1.80;99.90
6724;DHT22;3399;52.530;13.304;2024-01-15T01:29:48;1.70;99.90
6724;DHT22;3399;52.530;13.304;2024-01-15T01:32:13;1.70;99.90
6724;DHT22;3399;52.530;13.304;2024-01-15T01:34:42;1.70;99.90
6724;DHT22;3399;52.530;13.304;2024-01-15T01:37:08;1.60;99.90
6724;DHT22;3399;52.530;13.304;2024-01-15T01:39:34;1.60;99.90
6724;DHT22;3399;52.530;13.304;2024-01-15T01:41:59;1.60;99.90
6724;DHT22;3399;52.530;13.304;2024-01-15T01:44:25;1.40;99.90
6724;DHT22;3399;52.530;13.304;2024-01-15T01:46:51;1.20;99.90
6724;DHT22;3399;52.530;13.304;2024-01-15T01:49:16;1.20;99.90
6724;DHT22;3399;52.530;13.304;2024-01-15T01:51:42;1.20;99.90
6724;DHT22;3399;52.530;13.304;2024-01-15T01:54:08;1.20;99.90
6724;DHT22;3399;52.530;13.304;2024-01-15T01:56:37;1.20;99.90
6724;DHT22;3399;52.530;13.304;2024-01-15T01:59:04;1.20;99.90
6724;DHT22;3399;52.530;13.304;2024-01-15T02:01:31;1.30;99.90
6724;DHT22;3399;52.530;13.304;2024-01-15T02:03:57;1.40;99.90
6724;DHT22;3399;52.530;13.304;2024-01-15T02:06:23;1.50;99.90
6724;DHT22;3399;52.530;13.304;2024-01-15T02:08:49;1.50;99.90
6724;DHT22;3399;52.530;13.304;2024-01-15T02:11:15;1.40;99.90
6724;DHT22;3399;52.530;13.304;2024-01-15T02:13:40;1.60;99.90
6724;DHT22;3399;52.530;13.304;2024-01-15T02:16:06;1.70;99.90
6724;DHT22;3399;52.530;13.304;2024-01-15T02:18:42;1.70;99.90
6724;DHT22;3399;52.530;13.304;2024-01-15T02:21:08;1.60;99.90
6724;DHT22;3399;52.530;13.304;2024-01-15T02:23:34;1.40;99.90
6724;DHT22;3399;52.530;13.304;2024-01-15T02:25:59;1.50;99.90
6724;DHT22;3399;52.530;13.304;2024-01-15T02:28:25;1.60;99.90
6724;DHT22;3399;52.530;13.304;2024-01-15T02:30:51;1.60;99.90
6724;DHT22;3399;52.530;13.304;2024-01-15T02:33:16;1.70;99.90
6724;DHT22;3399;52.530;13.304;2024-01-15T02:35:42;1.70;99.90
6724;DHT22;3399;52.530;13.304;2024-01-15T02:38:07;1.80;99.90
6724;DHT22;3399;52.530;13.304;2024-01-15T02:40:34;1.90;99.90
6724;DHT22;3399;52.530;13.304;2024-01-15T02:43:00;1.80;99.90
6724;DHT22;3399;52.530;13.304;2024-01-15T02:45:26;1.90;99.90
6724;DHT22;3399;52.530;13.304;2024-01-15T02:47:52;2.00;99.90
6724;DHT22;3399;52.530;13.304;2024-01-15T02:50:17;1.90;99.90
6724;DHT22;3399;52.530;13.304;2024-01-15T02:52:43;2.00;99.90
6724;DHT22;3399;52.530;13.304;2024-01-15T02:55:09;2.10;99.90
6724;DHT22;3399;52.530;13.304;2024-01-15T02:57:35;2.10;99.90
6724;DHT22;3399;52.530;13.304;2024-01-15T03:00:00;2.00;99.90
6724;DHT22;3399;52.530;13.304;2024-01-15T03:02:26;2.00;99.90
6724;DHT22;3399;52.530;13.304;2024-01-15T03:04:52;2.10;99.90
6724;DHT22;3399;52.530;13.304;2024-01-15T03:07:17;2.10;99.90
6724;DHT22;3399;52.530;13.304;2024-01-15T03:09:43;1.90;99.90
6724;DHT22;3399;52.530;13.304;2024-01-15T03:12:09;1.90;99.90
6724;DHT22;3399;52.530;13.304;2024-01-15T03:14:35;1.90;99.90
6724;DHT22;3399;52.530;13.304;2024-01-15T03:17:00;2.00;99.90
6724;DHT22;3399;52.530;13.304;2024-01-15T03:19:28;2.20;99.90
6724;DHT22;3399;52.530;13.304;2024-01-15T03:21:54;2.00;99.90
6724;DHT22;3399;52.530;13.304;2024-01-15T03:24:20;1.80;99.90
6724;DHT22;3399;52.530;13.304;2024-01-15T03:26:45;1.80;99.90
6724;DHT22;3399;52.530;13.304;2024-01-15T03:29:11;1.90;99.90
6724;DHT22;3399;52.530;13.304;2024-01-15T03:31:37;1.80;99.90
6724;DHT22;3399;52.530;13.304;2024-01-15T03:34:02;1.90;99.90
6724;DHT22;3399;52.530;13.304;2024-01-15T03:36:28;1.90;99.90
6724;DHT22;3399;52.530;13.304;2024-01-15T03:38:54;1.90;99.90
6724;DHT22;3399;52.530;13.304;2024-01-15T03:41:19;2.00;99.90
6724;DHT22;3399;52.530;13.304;2024-01-15T03:43:45;1.90;99.90
6724;DHT22;3399;52.530;13.304;2024-01-15T03:46:10;1.90;99.90
6724;DHT22;3399;52.530;13.304;2024-01-15T03:48:36;2.00;99.90
6724;DHT22;3399;52.530;13.304;2024-01-15T03:51:02;2.10;99.90
6724;DHT22;3399;52.530;13.304;2024-01-15T03:53:27;1.90;99.90
6724;DHT22;3399;52.530;13.304;2024-01-15T03:55:53;2.00;99.90
6724;DHT22;3399;52.530;13.304;2024-01-15T03:58:18;1.90;99.90
6724;DHT22;3399;52.530;13.304;2024-01-15T04:00:44;2.00;99.90
6724;DHT22;3399;52.530;13.304;2024-01-15T04:03:09;2.00;99.90
6724;DHT22;3399;52.530;13.304;2024-01-15T04:05:35;2.00;99.90
6724;DHT22;3399;52.530;13.304;2024-01-15T04:08:01;2.00;99.90
6724;DHT22;3399;52.530;13.304;2024-01-15T04:10:26;1.90;99.90
6724;DHT22;3399;52.530;13.304;2024-01-15T04:12:55;1.90;99.90
6724;DHT22;3399;52.530;13.304;2024-01-15T04:15:20;1.90;99.90
6724;DHT22;3399;52.530;13.304;2024-01-15T04:17:46;2.00;99.90
6724;DHT22;3399;52.530;13.304;2024-01-15T04:20:11;2.00;99.90
6724;DHT22;3399;52.530;13.304;2024-01-15T04:22:37;2.00;99.90
6724;DHT22;3399;52.530;13.304;2024-01-15T04:25:03;2.00;99.90
6724;DHT22;3399;52.530;13.304;2024-01-15T04:27:29;2.00;99.90
6724;DHT22;3399;52.530;13.304;2024-01-15T04:29:54;1.90;99.90
6724;DHT22;3399;52.530;13.304;2024-01-15T04:32:20;2.00;99.90
6724;DHT22;3399;52.530;13.304;2024-01-15T04:34:46;2.00;99.90
6724;DHT22;3399;52.530;13.304;2024-01-15T04:37:11;2.00;99.90
6724;DHT22;3399;52.530;13.304;2024-01-15T04:39:37;2.00;99.90
6724;DHT22;3399;52.530;13.304;2024-01-15T04:42:03;2.10;99.90
6724;DHT22;3399;52.530;13.304;2024-01-15T04:44:28;2.30;99.90
6724;DHT22;3399;52.530;13.304;2024-01-15T04:46:54;2.30;99.90
6724;DHT22;3399;52.530;13.304;2024-01-15T04:49:19;2.20;99.90
6724;DHT22;3399;52.530;13.304;2024-01-15T04:51:45;2.00;99.90
6724;DHT22;3399;52.530;13.304;2024-01-15T04:54:11;2.00;99.90
6724;DHT22;3399;52.530;13.304;2024-01-15T04:56:36;2.10;99.90
6724;DHT22;3399;52.530;13.304;2024-01-15T04:59:02;2.10;99.90
6724;DHT22;3399;52.530;13.304;2024-01-15T05:01:31;2.20;99.90
6724;DHT22;3399;52.530;13.304;2024-01-15T05:03:57;2.20;99.90
6724;DHT22;3399;52.530;13.304;2024-01-15T05:06:23;2.10;99.90
6724;DHT22;3399;52.530;13.304;2024-01-15T05:08:48;2.20;99.90
6724;DHT22;3399;52.530;13.304;2024-01-15T05:11:14;2.20;99.90
6724;DHT22;3399;52.530;13.304;2024-01-15T05:13:40;2.00;99.90
6724;DHT22;3399;52.530;13.304;2024-01-15T05:16:05;2.00;99.90
6724;DHT22;3399;52.530;13.304;2024-01-15T05:18:31;2.00;99.90
6724;DHT22;3399;52.530;13.304;2024-01-15T05:20:57;2.10;99.90
6724;DHT22;3399;52.530;13.304;2024-01-15T05:23:22;2.20;99.90
6724;DHT22;3399;52.530;13.304;2024-01-15T05:25:48;2.10;99.90
6724;DHT22;3399;52.530;13.304;2024-01-15T05:28:14;2.20;99.90
6724;DHT22;3399;52.530;13.304;2024-01-15T05:30:39;2.20;99.90
6724;DHT22;3399;52.530;13.304;2024-01-15T05:33:05;2.10;99.90
6724;DHT22;3399;52.530;13.304;2024-01-15T05:35:32;2.20;99.90
6724;DHT22;3399;52.530;13.304;2024-01-15T05:37:58;2.30;99.90
6724;DHT22;3399;52.530;13.304;2024-01-15T05:40:23;2.30;99.90
6724;DHT22;3399;52.530;13.304;2024-01-15T05:42:49;2.30;99.90
6724;DHT22;3399;52.530;13.304;2024-01-15T05:45:14;2.20;99.90
6724;DHT22;3399;52.530;13.304;2024-01-15T05:47:40;2.30;99.90
6724;DHT22;3399;52.530;13.304;2024-01-15T05:50:06;2.30;99.90
6724;DHT22;3399;52.530;13.304;2024-01-15T05:52:32;2.40;99.90
6724;DHT22;3399;52.530;13.304;2024-01-15T05:54:57;2.40;99.90
6724;DHT22;3399;52.530;13.304;2024-01-15T05:57:23;2.20;99.90
6724;DHT22;3399;52.530;13.304;2024-01-15T05:59:49;2.10;99.90
6724;DHT22;3399;52.530;13.304;2024-01-15T06:02:15;2.10;99.90
6724;DHT22;3399;52.530;13.304;2024-01-15T06:04:40;1.90;99.90
6724;DHT22;3399;52.530;13.304;2024-01-15T06:07:06;2.10;99.90
6724;DHT22;3399;52.530;13.304;2024-01-15T06:09:31;2.10;99.90
6724;DHT22;3399;52.530;13.304;2024-01-15T06:11:57;2.10;99.90
6724;DHT22;3399;52.530;13.304;2024-01-15T06:14:22;2.20;99.90
6724;DHT22;3399;52.530;13.304;2024-01-15T06:16:48;2.10;99.90
6724;DHT22;3399;52.530;13.304;2024-01-15T06:19:14;2.10;99.90
6724;DHT22;3399;52.530;13.304;2024-01-15T06:21:40;2.20;99.90
6724;DHT22;3399;52.530;13.304;2024-01-15T06:24:05;2.20;99.90
6724;DHT22;3399;52.530;13.304;2024-01-15T06:26:31;2.20;99.90
6724;DHT22;3399;52.530;13.304;2024-01-15T06:28:56;2.20;99.90
6724;DHT22;3399;52.530;13.304;2024-01-15T06:31:22;2.20;99.90
6724;DHT22;3399;52.530;13.304;2024-01-15T06:33:47;2.20;99.90
6724;DHT22;3399;52.530;13.304;2024-01-15T06:36:14;2.40;99.90
6724;DHT22;3399;52.530;13.304;2024-01-15T06:38:42;2.30;99.90
6724;DHT22;3399;52.530;13.304;2024-01-15T06:41:08;2.20;99.90
6724;DHT22;3399;52.530;13.304;2024-01-15T06:43:33;2.20;99.90
6724;DHT22;3399;52.530;13.304;2024-01-15T06:45:59;2.20;99.90
6724;DHT22;3399;52.530;13.304;2024-01-15T06:48:25;2.30;99.90
6724;DHT22;3399;52.530;13.304;2024-01-15T06:50:50;2.40;99.90
6724;DHT22;3399;52.530;13.304;2024-01-15T06:53:16;2.30;99.90
6724;DHT22;3399;52.530;13.304;2024-01-15T06:55:42;2.20;99.90
6724;DHT22;3399;52.530;13.304;2024-01-15T06:58:07;2.30;99.90
6724;DHT22;3399;52.530;13.304;2024-01-15T07:00:32;2.30;99.90
6724;DHT22;3399;52.530;13.304;2024-01-15T07:02:58;2.20;99.90
6724;DHT22;3399;52.530;13.304;2024-01-15T07:05:24;2.20;99.90
6724;DHT22;3399;52.530;13.304;2024-01-15T07:07:49;2.30;99.90
6724;DHT22;3399;52.530;13.304;2024-01-15T07:10:16;2.40;99.90
6724;DHT22;3399;52.530;13.304;2024-01-15T07:12:42;2.40;99.90
6724;DHT22;3399;52.530;13.304;2024-01-15T07:15:08;2.40;99.90
6724;DHT22;3399;52.530;13.304;2024-01-15T07:17:35;2.30;99.90
6724;DHT22;3399;52.530;13.304;2024-01-15T07:20:00;2.30;99.90
6724;DHT22;3399;52.530;13.304;2024-01-15T07:22:26;2.30;99.90
6724;DHT22;3399;52.530;13.304;2024-01-15T07:24:52;2.40;99.90
6724;DHT22;3399;52.530;13.304;2024-01-15T07:27:17;2.40;99.90
6724;DHT22;3399;52.530;13.304;2024-01-15T07:29:43;2.50;99.90
6724;DHT22;3399;52.530;13.304;2024-01-15T07:32:10;2.40;99.90
6724;DHT22;3399;52.530;13.304;2024-01-15T07:34:35;2.40;99.90
6724;DHT22;3399;52.530;13.304;2024-01-15T07:37:01;2.50;99.90
6724;DHT22;3399;52.530;13.304;2024-01-15T07:39:26;2.40;99.90
6724;DHT22;3399;52.530;13.304;2024-01-15T07:41:54;2.50;99.90
6724;DHT22;3399;52.530;13.304;2024-01-15T07:44:19;2.60;99.90
6724;DHT22;3399;52.530;13.304;2024-01-15T07:46:45;2.40;99.90
6724;DHT22;3399;52.530;13.304;2024-01-15T07:49:12;2.40;99.90
6724;DHT22;3399;52.530;13.304;2024-01-15T07:51:38;2.40;99.90
6724;DHT22;3399;52.530;13.304;2024-01-15T07:54:05;2.40;99.90
6724;DHT22;3399;52.530;13.304;2024-01-15T07:56:31;2.30;99.90
6724;DHT22;3399;52.530;13.304;2024-01-15T07:58:57;2.40;99.90
6724;DHT22;3399;52.530;13.304;2024-01-15T08:01:22;2.50;99.90
6724;DHT22;3399;52.530;13.304;2024-01-15T08:03:48;2.40;99.90
6724;DHT22;3399;52.530;13.304;2024-01-15T08:06:13;2.30;99.90
6724;DHT22;3399;52.530;13.304;2024-01-15T08:08:39;2.40;99.90
6724;DHT22;3399;52.530;13.304;2024-01-15T08:11:05;2.40;99.90
6724;DHT22;3399;52.530;13.304;2024-01-15T08:13:30;2.50;99.90
6724;DHT22;3399;52.530;13.304;2024-01-15T08:15:56;2.60;99.90
6724;DHT22;3399;52.530;13.304;2024-01-15T08:18:21;2.50;99.90
6724;DHT22;3399;52.530;13.304;2024-01-15T08:20:47;2.60;99.90
6724;DHT22;3399;52.530;13.304;2024-01-15T08:23:12;2.70;99.90
6724;DHT22;3399;52.530;13.304;2024-01-15T08:25:38;2.60;99.90
6724;DHT22;3399;52.530;13.304;2024-01-15T08:28:03;2.50;99.90
6724;DHT22;3399;52.530;13.304;2024-01-15T08:30:29;2.60;99.90
6724;DHT22;3399;52.530;13.304;2024-01-15T08:32:55;2.60;99.90
6724;DHT22;3399;52.530;13.304;2024-01-15T08:35:21;2.50;99.90
6724;DHT22;3399;52.530;13.304;2024-01-15T08:37:50;2.50;99.90
6724;DHT22;3399;52.530;13.304;2024-01-15T08:40:16;2.50;99.90
6724;DHT22;3399;52.530;13.304;2024-01-15T08:42:42;2.50;99.90
6724;DHT22;3399;52.530;13.304;2024-01-15T08:45:08;2.70;99.90
6724;DHT22;3399;52.530;13.304;2024-01-15T08:47:34;2.60;99.90
6724;DHT22;3399;52.530;13.304;2024-01-15T08:50:00;2.50;99.90
6724;DHT22;3399;52.530;13.304;2024-01-15T08:52:26;2.50;99.90
6724;DHT22;3399;52.530;13.304;2024-01-15T08:54:51;2.50;99.90
6724;DHT22;3399;52.530;13.304;2024-01-15T08:57:17;2.50;99.90
6724;DHT22;3399;52.530;13.304;2024-01-15T08:59:42;2.40;99.90
6724;DHT22;3399;52.530;13.304;2024-01-15T09:02:08;2.50;99.90
6724;DHT22;3399;52.530;13.304;2024-01-15T09:04:33;2.50;99.90
6724;DHT22;3399;52.530;13.304;2024-01-15T09:06:59;2.50;99.90
6724;DHT22;3399;52.530;13.304;2024-01-15T09:09:24;2.50;99.90
6724;DHT22;3399;52.530;13.304;2024-01-15T09:11:50;2.60;99.90
6724;DHT22;3399;52.530;13.304;2024-01-15T09:14:16;2.40;99.90
6724;DHT22;3399;52.530;13.304;2024-01-15T09:16:41;2.40;99.90
6724;DHT22;3399;52.530;13.304;2024-01-15T09:19:07;2.40;99.90
6724;DHT22;3399;52.530;13.304;2024-01-15T09:21:33;2.50;99.90
6724;DHT22;3399;52.530;13.304;2024-01-15T09:23:58;2.60;99.90
6724;DHT22;3399;52.530;13.304;2024-01-15T09:26:24;2.60;99.90
6724;DHT22;3399;52.530;13.304;2024-01-15T09:28:49;2.70;99.90
6724;DHT22;3399;52.530;13.304;2024-01-15T09:31:15;2.70;99.90
6724;DHT22;3399;52.530;13.304;2024-01-15T09:33:42;2.60;99.90
6724;DHT22;3399;52.530;13.304;2024-01-15T09:36:08;2.70;99.90
6724;DHT22;3399;52.530;13.304;2024-01-15T09:38:34;2.60;99.90
6724;DHT22;3399;52.530;13.304;2024-01-15T09:41:00;2.60;99.90
6724;DHT22;3399;52.530;13.304;2024-01-15T09:43:25;2.70;99.90
6724;DHT22;3399;52.530;13.304;2024-01-15T09:45:51;2.70;99.90
6724;DHT22;3399;52.530;13.304;2024-01-15T09:48:18;2.80;99.90
6724;DHT22;3399;52.530;13.304;2024-01-15T09:50:44;2.80;99.90
6724;DHT22;3399;52.530;13.304;2024-01-15T09:53:09;2.70;99.90
6724;DHT22;3399;52.530;13.304;2024-01-15T09:55:38;2.50;99.90
6724;DHT22;3399;52.530;13.304;2024-01-15T09:58:04;2.60;99.90
6724;DHT22;3399;52.530;13.304;2024-01-15T10:00:29;2.70;99.90
6724;DHT22;3399;52.530;13.304;2024-01-15T10:02:58;2.80;99.90
6724;DHT22;3399;52.530;13.304;2024-01-15T10:05:26;2.80;99.90
6724;DHT22;3399;52.530;13.304;2024-01-15T10:07:53;2.90;99.90
6724;DHT22;3399;52.530;13.304;2024-01-15T10:10:20;2.90;99.90
6724;DHT22;3399;52.530;13.304;2024-01-15T10:12:47;2.90;99.90
6724;DHT22;3399;52.530;13.304;2024-01-15T10:15:12;2.80;99.90
6724;DHT22;3399;52.530;13.304;2024-01-15T10:17:40;2.70;99.90
6724;DHT22;3399;52.530;13.304;2024-01-15T10:20:09;2.70;99.90
6724;DHT22;3399;52.530;13.304;2024-01-15T10:22:39;2.80;99.90
6724;DHT22;3399;52.530;13.304;2024-01-15T10:25:05;2.80;99.90
6724;DHT22;3399;52.530;13.304;2024-01-15T10:27:30;2.80;99.90
6724;DHT22;3399;52.530;13.304;2024-01-15T10:29:59;2.90;99.90
6724;DHT22;3399;52.530;13.304;2024-01-15T10:32:26;2.90;99.90
6724;DHT22;3399;52.530;13.304;2024-01-15T10:34:52;2.90;99.90
6724;DHT22;3399;52.530;13.304;2024-01-15T10:37:18;2.90;99.90
6724;DHT22;3399;52.530;13.304;2024-01-15T10:39:43;3.10;99.90
6724;DHT22;3399;52.530;13.304;2024-01-15T10:42:09;3.60;99.90
6724;DHT22;3399;52.530;13.304;2024-01-15T10:44:35;3.70;99.90
6724;DHT22;3399;52.530;13.304;2024-01-15T10:47:01;3.80;99.90
6724;DHT22;3399;52.530;13.304;2024-01-15T10:49:27;3.70;99.90
6724;DHT22;3399;52.530;13.304;2024-01-15T10:51:54;3.70;99.90
6724;DHT22;3399;52.530;13.304;2024-01-15T10:54:21;3.80;99.90
6724;DHT22;3399;52.530;13.304;2024-01-15T10:56:50;3.70;99.90
6724;DHT22;3399;52.530;13.304;2024-01-15T10:59:16;3.90;99.90
6724;DHT22;3399;52.530;13.304;2024-01-15T11:01:42;3.60;99.90
6724;DHT22;3399;52.530;13.304;2024-01-15T11:04:08;3.60;99.90
6724;DHT22;3399;52.530;13.304;2024-01-15T11:06:42;3.70;99.90
6724;DHT22;3399;52.530;13.304;2024-01-15T11:09:08;4.10;99.90
6724;DHT22;3399;52.530;13.304;2024-01-15T11:11:36;3.80;99.90
6724;DHT22;3399;52.530;13.304;2024-01-15T11:14:05;3.80;99.90
6724;DHT22;3399;52.530;13.304;2024-01-15T11:16:54;3.70;99.90
6724;DHT22;3399;52.530;13.304;2024-01-15T11:19:21;3.60;99.90
6724;DHT22;3399;52.530;13.304;2024-01-15T11:21:47;3.50;99.90
6724;DHT22;3399;52.530;13.304;2024-01-15T11:24:36;3.70;99.90
6724;DHT22;3399;52.530;13.304;2024-01-15T11:27:02;3.40;99.90
6724;DHT22;3399;52.530;13.304;2024-01-15T11:34:54;3.30;99.90
6724;DHT22;3399;52.530;13.304;2024-01-15T11:37:24;2.90;99.90
6724;DHT22;3399;52.530;13.304;2024-01-15T11:39:52;2.70;99.90
6724;DHT22;3399;52.530;13.304;2024-01-15T11:42:20;2.70;99.90
6724;DHT22;3399;52.530;13.304;2024-01-15T11:44:46;2.60;99.90
6724;DHT22;3399;52.530;13.304;2024-01-15T11:47:12;2.50;99.90
6724;DHT22;3399;52.530;13.304;2024-01-15T11:50:07;2.30;99.90
6724;DHT22;3399;52.530;13.304;2024-01-15T11:52:38;2.00;99.90
6724;DHT22;3399;52.530;13.304;2024-01-15T11:57:46;1.90;99.90
6724;DHT22;3399;52.530;13.304;2024-01-15T12:00:12;1.90;99.90
6724;DHT22;3399;52.530;13.304;2024-01-15T12:02:43;2.00;99.90
6724;DHT22;3399;52.530;13.304;2024-01-15T12:05:10;2.00;99.90
6724;DHT22;3399;52.530;13.304;2024-01-15T12:07:41;2.10;99.90
6724;DHT22;3399;52.530;13.304;2024-01-15T12:10:09;2.10;99.90
6724;DHT22;3399;52.530;13.304;2024-01-15T12:12:59;2.10;99.90
6724;DHT22;3399;52.530;13.304;2024-01-15T12:15:27;2.40;99.90
6724;DHT22;3399;52.530;13.304;2024-01-15T12:17:55;2.30;99.90
6724;DHT22;3399;52.530;13.304;2024-01-15T12:20:21;2.30;99.90
6724;DHT22;3399;52.530;13.304;2024-01-15T12:22:47;2.30;99.90
6724;DHT22;3399;52.530;13.304;2024-01-15T12:25:13;2.30;99.90
6724;DHT22;3399;52.530;13.304;2024-01-15T12:27:38;2.30;99.90
6724;DHT22;3399;52.530;13.304;2024-01-15T12:30:05;2.40;99.90
6724;DHT22;3399;52.530;13.304;2024-01-15T12:32:31;2.30;99.90
6724;DHT22;3399;52.530;13.304;2024-01-15T12:34:56;2.30;99.90
6724;DHT22;3399;52.530;13.304;2024-01-15T12:37:22;2.30;99.90
6724;DHT22;3399;52.530;13.304;2024-01-15T12:39:48;2.30;99.90
6724;DHT22;3399;52.530;13.304;2024-01-15T12:42:17;2.00;99.90
6724;DHT22;3399;52.530;13.304;2024-01-15T12:44:44;1.70;99.90
6724;DHT22;3399;52.530;13.304;2024-01-15T12:47:10;1.60;99.90
6724;DHT22;3399;52.530;13.304;2024-01-15T12:49:37;1.50;99.90
6724;DHT22;3399;52.530;13.304;2024-01-15T12:52:03;1.60;99.90
6724;DHT22;3399;52.530;13.304;2024-01-15T12:54:29;1.60;99.90
6724;DHT22;3399;52.530;13.304;2024-01-15T12:56:54;1.70;99.90
6724;DHT22;3399;52.530;13.304;2024-01-15T12:59:20;1.70;99.90
6724;DHT22;3399;52.530;13.304;2024-01-15T13:01:46;1.70;99.90
6724;DHT22;3399;52.530;13.304;2024-01-15T13:04:20;1.70;99.90
6724;DHT22;3399;52.530;13.304;2024-01-15T13:06:45;1.70;99.90
6724;DHT22;3399;52.530;13.304;2024-01-15T13:09:11;1.80;99.90
6724;DHT22;3399;52.530;13.304;2024-01-15T13:11:37;1.90;99.90
6724;DHT22;3399;52.530;13.304;2024-01-15T13:14:02;1.90;99.90
6724;DHT22;3399;52.530;13.304;2024-01-15T13:16:28;1.90;99.90
6724;DHT22;3399;52.530;13.304;2024-01-15T13:18:54;1.90;99.90
6724;DHT22;3399;52.530;13.304;2024-01-15T13:21:20;1.90;99.90
6724;DHT22;3399;52.530;13.304;2024-01-15T13:23:46;2.00;99.90
6724;DHT22;3399;52.530;13.304;2024-01-15T13:26:11;2.10;99.90
6724;DHT22;3399;52.530;13.304;2024-01-15T13:28:37;2.00;99.90
6724;DHT22;3399;52.530;13.304;2024-01-15T13:31:03;2.10;99.90
6724;DHT22;3399;52.530;13.304;2024-01-15T13:33:30;2.10;99.90
6724;DHT22;3399;52.530;13.304;2024-01-15T13:35:55;2.10;99.90
6724;DHT22;3399;52.530;13.304;2024-01-15T13:38:21;2.20;99.90
6724;DHT22;3399;52.530;13.304;2024-01-15T13:40:46;2.10;99.90
6724;DHT22;3399;52.530;13.304;2024-01-15T13:43:12;2.00;99.90
6724;DHT22;3399;52.530;13.304;2024-01-15T13:45:40;2.00;99.90
6724;DHT22;3399;52.530;13.304;2024-01-15T13:48:06;2.10;99.90
6724;DHT22;3399;52.530;13.304;2024-01-15T13:50:33;2.10;99.90
6724;DHT22;3399;52.530;13.304;2024-01-15T13:53:00;2.10;99.90
6724;DHT22;3399;52.530;13.304;2024-01-15T13:55:25;2.10;99.90
6724;DHT22;3399;52.530;13.304;2024-01-15T13:57:51;2.10;99.90
6724;DHT22;3399;52.530;13.304;2024-01-15T14:00:16;2.20;99.90
6724;DHT22;3399;52.530;13.304;2024-01-15T14:02:45;2.20;99.90
6724;DHT22;3399;52.530;13.304;2024-01-15T14:05:12;2.20;99.90
6724;DHT22;3399;52.530;13.304;2024-01-15T14:07:38;2.10;99.90
6724;DHT22;3399;52.530;13.304;2024-01-15T14:10:05;2.20;99.90
6724;DHT22;3399;52.530;13.304;2024-01-15T14:12:31;2.20;99.90
6724;DHT22;3399;52.530;13.304;2024-01-15T14:14:57;2.20;99.90
6724;DHT22;3399;52.530;13.304;2024-01-15T14:17:22;2.20;99.90
6724;DHT22;3399;52.530;13.304;2024-01-15T14:19:48;2.20;99.90
6724;DHT22;3399;52.530;13.304;2024-01-15T14:22:14;2.20;99.90
6724;DHT22;3399;52.530;13.304;2024-01-15T14:24:40;2.20;99.90
6724;DHT22;3399;52.530;13.304;2024-01-15T14:27:05;2.20;99.90
6724;DHT22;3399;52.530;13.304;2024-01-15T14:29:32;2.20;99.90
6724;DHT22;3399;52.530;13.304;2024-01-15T14:31:58;2.20;99.90
6724;DHT22;3399;52.530;13.304;2024-01-15T14:34:25;2.20;99.90
6724;DHT22;3399;52.530;13.304;2024-01-15T14:36:51;2.20;99.90
6724;DHT22;3399;52.530;13.304;2024-01-15T14:39:19;2.20;99.90
6724;DHT22;3399;52.530;13.304;2024-01-15T14:41:44;2.10;99.90
6724;DHT22;3399;52.530;13.304;2024-01-15T14:44:10;2.20;99.90
6724;DHT22;3399;52.530;13.304;2024-01-15T14:46:37;2.10;99.90
6724;DHT22;3399;52.530;13.304;2024-01-15T14:49:03;2.10;99.90
6724;DHT22;3399;52.530;13.304;2024-01-15T14:51:28;2.00;99.90
6724;DHT22;3399;52.530;13.304;2024-01-15T14:53:54;2.00;99.90
6724;DHT22;3399;52.530;13.304;2024-01-15T14:56:20;2.10;99.90
6724;DHT22;3399;52.530;13.304;2024-01-15T14:58:46;2.00;99.90
6724;DHT22;3399;52.530;13.304;2024-01-15T15:01:14;2.00;99.90
6724;DHT22;3399;52.530;13.304;2024-01-15T15:03:40;2.00;99.90
6724;DHT22;3399;52.530;13.304;2024-01-15T15:06:06;2.00;99.90
6724;DHT22;3399;52.530;13.304;2024-01-15T15:08:33;2.00;99.90
6724;DHT22;3399;52.530;13.304;2024-01-15T15:10:59;2.00;99.90
6724;DHT22;3399;52.530;13.304;2024-01-15T15:13:25;2.00;99.90
6724;DHT22;3399;52.530;13.304;2024-01-15T15:15:52;2.00;99.90
6724;DHT22;3399;52.530;13.304;2024-01-15T15:18:18;1.90;99.90
6724;DHT22;3399;52.530;13.304;2024-01-15T15:20:44;2.00;99.90
6724;DHT22;3399;52.530;13.304;2024-01-15T15:23:10;2.00;99.90
6724;DHT22;3399;52.530;13.304;2024-01-15T15:25:36;2.00;99.90
6724;DHT22;3399;52.530;13.304;2024-01-15T15:28:02;2.00;99.90
6724;DHT22;3399;52.530;13.304;2024-01-15T15:30:30;1.90;99.90
6724;DHT22;3399;52.530;13.304;2024-01-15T15:32:55;1.80;99.90
6724;DHT22;3399;52.530;13.304;2024-01-15T15:35:21;1.60;99.90
6724;DHT22;3399;52.530;13.304;2024-01-15T15:37:47;1.60;99.90
6724;DHT22;3399;52.530;13.304;2024-01-15T15:40:12;1.60;99.90
6724;DHT22;3399;52.530;13.304;2024-01-15T15:42:38;1.60;99.90
6724;DHT22;3399;52.530;13.304;2024-01-15T15:45:04;1.50;99.90
6724;DHT22;3399;52.530;13.304;2024-01-15T15:47:30;1.50;99.90
6724;DHT22;3399;52.530;13.304;2024-01-15T15:49:56;1.40;99.90
6724;DHT22;3399;52.530;13.304;2024-01-15T15:52:22;1.40;99.90
6724;DHT22;3399;52.530;13.304;2024-01-15T15:54:49;1.50;99.90
6724;DHT22;3399;52.530;13.304;2024-01-15T15:57:14;1.50;99.90
6724;DHT22;3399;52.530;13.304;2024-01-15T15:59:39;1.60;99.90
6724;DHT22;3399;52.530;13.304;2024-01-15T16:02:05;1.60;99.90
6724;DHT22;3399;52.530;13.304;2024-01-15T16:04:31;1.70;99.90